createdAt,value
2019-03-29T00:00:19.965Z,228.50
2019-03-29T00:02:48.291Z,146.15
2019-03-29T00:05:17.158Z,193.50
2019-03-29T00:07:45.463Z,125.20
2019-03-29T00:10:13.792Z,135.05
2019-03-29T00:12:42.057Z,156.07
2019-03-29T00:15:10.541Z,195.03
2019-03-29T00:17:38.992Z,225.20
2019-03-29T00:20:07.636Z,195.65
2019-03-29T00:22:36.104Z,168.17
2019-03-29T00:25:04.663Z,125.65
2019-03-29T00:27:32.917Z,176.15
2019-03-29T00:30:01.388Z,109.40
2019-03-29T00:32:29.783Z,157.47
2019-03-29T00:34:58.473Z,188.55
2019-03-29T00:37:29.604Z,271.10
2019-03-29T00:39:57.948Z,207.25
2019-03-29T00:42:26.269Z,157.93
2019-03-29T00:44:54.649Z,288.30
2019-03-29T00:47:22.992Z,131.43
2019-03-29T00:49:51.333Z,150.85
2019-03-29T00:52:19.840Z,218.10
2019-03-29T00:54:48.463Z,360.35
2019-03-29T00:57:16.717Z,387.95
2019-03-29T00:59:45.237Z,340.52
2019-03-29T01:02:13.674Z,155.03
2019-03-29T01:04:42.047Z,113.72
2019-03-29T01:07:10.655Z,117.42
2019-03-29T01:09:39.063Z,115.28
2019-03-29T01:12:07.428Z,154.12
2019-03-29T01:14:35.893Z,180.03
2019-03-29T01:17:04.432Z,151.32
2019-03-29T01:19:32.728Z,303.60
2019-03-29T01:22:01.004Z,188.37
2019-03-29T01:24:29.643Z,272.80
2019-03-29T01:26:57.967Z,169.10
2019-03-29T01:29:26.605Z,188.82
2019-03-29T01:31:54.918Z,149.02
2019-03-29T01:34:23.251Z,167.87
2019-03-29T01:36:51.591Z,307.00
2019-03-29T01:39:19.843Z,306.63
2019-03-29T01:41:48.383Z,305.77
2019-03-29T01:44:16.839Z,173.17
2019-03-29T01:46:45.104Z,228.60
2019-03-29T01:49:15.885Z,199.53
2019-03-29T01:51:45.179Z,156.95
2019-03-29T01:54:13.486Z,159.40
2019-03-29T01:56:41.914Z,180.60
2019-03-29T01:59:10.196Z,239.68
2019-03-29T02:01:38.579Z,173.05
2019-03-29T02:04:08.057Z,181.95
2019-03-29T02:09:05.378Z,196.35
2019-03-29T02:11:33.686Z,175.78
2019-03-29T02:14:02.012Z,161.35
2019-03-29T02:16:30.299Z,235.35
2019-03-29T02:18:58.899Z,405.70
2019-03-29T02:21:27.300Z,288.87
2019-03-29T02:23:56.989Z,461.10
2019-03-29T02:28:53.507Z,255.35
2019-03-29T02:31:25.641Z,467.15
2019-03-29T02:33:51.851Z,474.42
2019-03-29T02:36:20.835Z,400.87
2019-03-29T02:38:55.746Z,196.93
2019-03-29T02:41:22.202Z,260.55
2019-03-29T02:43:50.591Z,126.65
2019-03-29T02:46:19.104Z,119.60
2019-03-29T02:48:47.535Z,99.45
2019-03-29T02:51:15.875Z,135.78
2019-03-29T02:53:44.938Z,138.43
2019-03-29T02:56:13.269Z,272.10
2019-03-29T02:58:42.207Z,342.30
2019-03-29T03:01:10.516Z,189.43
2019-03-29T03:03:38.795Z,301.98
2019-03-29T03:06:07.314Z,167.40
2019-03-29T03:08:35.746Z,165.90
2019-03-29T03:11:04.253Z,144.80
2019-03-29T03:13:32.626Z,148.43
2019-03-29T03:16:01.215Z,137.10
2019-03-29T03:18:29.615Z,169.68
2019-03-29T03:20:58.279Z,155.12
2019-03-29T03:23:26.546Z,170.97
2019-03-29T03:25:55.232Z,350.70
2019-03-29T03:28:23.830Z,228.67
2019-03-29T03:30:52.276Z,196.05
2019-03-29T03:33:20.658Z,792.95
2019-03-29T03:35:49.094Z,272.33
2019-03-29T03:38:17.430Z,167.05
2019-03-29T03:40:45.714Z,239.42
2019-03-29T03:43:13.985Z,364.82
2019-03-29T03:45:42.290Z,155.25
2019-03-29T03:48:10.796Z,143.50
2019-03-29T03:50:42.410Z,114.70
2019-03-29T03:53:10.810Z,106.90
2019-03-29T03:55:40.523Z,278.83
2019-03-29T03:58:10.073Z,203.62
2019-03-29T04:00:55.093Z,123.78
2019-03-29T04:03:23.940Z,141.60
2019-03-29T04:05:52.498Z,159.10
2019-03-29T04:08:20.934Z,250.20
2019-03-29T04:10:49.228Z,182.85
2019-03-29T04:13:17.580Z,114.12
2019-03-29T04:15:45.966Z,126.20
2019-03-29T04:18:16.104Z,126.27
2019-03-29T04:20:44.968Z,134.47
2019-03-29T04:23:13.392Z,227.87
2019-03-29T04:25:41.702Z,128.90
2019-03-29T04:28:10.193Z,181.32
2019-03-29T04:30:38.500Z,129.42
2019-03-29T04:33:10.820Z,158.90
2019-03-29T04:35:37.188Z,391.15
2019-03-29T04:38:05.727Z,300.05
2019-03-29T04:40:34.370Z,167.75
2019-03-29T04:43:04.559Z,298.35
2019-03-29T04:45:35.063Z,188.80
2019-03-29T04:48:03.682Z,320.80
2019-03-29T04:50:32.022Z,264.80
2019-03-29T04:53:00.448Z,202.35
2019-03-29T04:55:29.076Z,354.05
2019-03-29T04:57:58.437Z,320.67
2019-03-29T05:00:29.708Z,309.40
2019-03-29T05:02:58.149Z,298.65
2019-03-29T05:05:26.781Z,250.47
2019-03-29T05:07:55.156Z,146.75
2019-03-29T05:10:23.859Z,179.00
2019-03-29T05:12:52.194Z,153.87
2019-03-29T05:15:20.654Z,163.30
2019-03-29T05:17:48.880Z,207.98
2019-03-29T05:20:18.035Z,256.07
2019-03-29T05:22:47.223Z,228.40
2019-03-29T05:25:15.961Z,143.75
2019-03-29T05:27:44.331Z,141.92
2019-03-29T05:30:12.821Z,110.88
2019-03-29T05:32:41.510Z,97.08
2019-03-29T05:35:09.937Z,96.30
2019-03-29T05:37:38.492Z,89.45
2019-03-29T05:40:07.028Z,106.20
2019-03-29T05:42:35.614Z,83.55
2019-03-29T05:45:08.321Z,69.92
2019-03-29T05:47:36.809Z,80.17
2019-03-29T05:50:07.127Z,83.25
2019-03-29T05:52:35.576Z,87.12
2019-03-29T05:55:05.870Z,85.20
2019-03-29T05:57:34.442Z,89.65
2019-03-29T06:00:06.634Z,93.97
2019-03-29T06:02:35.070Z,83.33
2019-03-29T06:05:04.223Z,82.67
2019-03-29T06:07:32.661Z,77.95
2019-03-29T06:10:01.229Z,73.90
2019-03-29T06:12:31.708Z,72.53
2019-03-29T06:15:00.381Z,67.20
2019-03-29T06:17:28.828Z,69.25
2019-03-29T06:19:57.370Z,68.05
2019-03-29T06:22:25.943Z,67.10
2019-03-29T06:24:54.609Z,60.92
2019-03-29T06:27:23.113Z,70.92
2019-03-29T06:29:52.079Z,70.15
2019-03-29T06:32:20.657Z,64.92
2019-03-29T06:34:49.048Z,63.87
2019-03-29T06:37:17.832Z,70.05
2019-03-29T06:39:46.645Z,69.55
2019-03-29T06:42:15.135Z,67.62
2019-03-29T06:44:44.484Z,68.67
2019-03-29T06:47:14.860Z,71.77
2019-03-29T06:49:46.996Z,73.92
2019-03-29T06:52:15.548Z,102.50
2019-03-29T06:54:44.220Z,86.85
2019-03-29T06:57:12.832Z,70.08
2019-03-29T06:59:42.997Z,70.72
2019-03-29T07:02:15.195Z,81.53
2019-03-29T07:04:43.743Z,74.70
2019-03-29T07:07:12.369Z,69.70
2019-03-29T07:09:40.872Z,67.72
2019-03-29T07:12:09.519Z,80.67
2019-03-29T07:14:39.733Z,72.75
2019-03-29T07:17:10.281Z,72.17
2019-03-29T07:19:38.394Z,67.85
2019-03-29T07:22:06.837Z,70.60
2019-03-29T07:24:37.017Z,65.78
2019-03-29T07:27:07.065Z,72.27
2019-03-29T07:32:03.681Z,64.30
2019-03-29T07:34:32.369Z,63.15
2019-03-29T07:37:00.836Z,64.55
2019-03-29T07:39:29.398Z,62.33
2019-03-29T07:41:58.012Z,65.75
2019-03-29T07:44:27.028Z,67.40
2019-03-29T07:46:55.464Z,69.32
2019-03-29T07:49:43.144Z,62.88
2019-03-29T07:52:08.894Z,60.85
2019-03-29T07:54:37.381Z,60.25
2019-03-29T07:57:05.673Z,66.85
2019-03-29T07:59:34.066Z,65.45
2019-03-29T08:02:02.800Z,61.15
2019-03-29T08:04:32.422Z,57.13
2019-03-29T08:07:00.815Z,56.23
2019-03-29T08:09:29.460Z,56.18
2019-03-29T08:11:57.928Z,54.73
2019-03-29T08:14:28.446Z,60.10
2019-03-29T08:16:56.937Z,49.65
2019-03-29T08:19:25.260Z,48.85
2019-03-29T08:21:53.704Z,47.93
2019-03-29T08:24:22.088Z,46.83
2019-03-29T08:26:50.704Z,44.55
2019-03-29T08:29:19.315Z,46.68
2019-03-29T08:31:47.711Z,41.20
2019-03-29T08:34:16.388Z,43.95
2019-03-29T08:36:44.896Z,41.33
2019-03-29T08:39:26.995Z,45.65
2019-03-29T08:41:43.868Z,42.23
2019-03-29T08:44:12.467Z,42.85
2019-03-29T08:46:41.084Z,42.20
2019-03-29T08:49:09.944Z,36.73
2019-03-29T08:51:41.270Z,41.83
2019-03-29T08:54:08.529Z,37.35
2019-03-29T08:56:36.848Z,35.58
2019-03-29T08:59:05.137Z,39.20
2019-03-29T09:01:33.595Z,33.75
2019-03-29T09:04:05.700Z,35.83
2019-03-29T09:06:33.061Z,33.42
2019-03-29T09:09:02.301Z,37.40
2019-03-29T09:11:30.659Z,31.05
2019-03-29T09:13:59.051Z,32.83
2019-03-29T09:16:27.445Z,32.75
2019-03-29T09:18:56.222Z,31.23
2019-03-29T09:21:24.710Z,21.70
2019-03-29T09:23:53.113Z,18.50
2019-03-29T09:26:21.466Z,27.07
2019-03-29T09:28:49.740Z,22.70
2019-03-29T09:31:18.063Z,28.35
2019-03-29T09:33:46.381Z,30.43
2019-03-29T09:36:14.872Z,31.33
2019-03-29T09:38:43.836Z,29.27
2019-03-29T09:41:12.346Z,27.80
2019-03-29T09:43:43.645Z,27.40
2019-03-29T09:46:12.013Z,27.22
2019-03-29T09:48:40.657Z,30.05
2019-03-29T09:51:08.966Z,28.77
2019-03-29T09:53:40.832Z,27.77
2019-03-29T09:58:35.188Z,34.78
2019-03-29T10:01:03.697Z,29.60
2019-03-29T10:03:32.071Z,30.75
2019-03-29T10:06:00.464Z,33.53
2019-03-29T10:08:28.998Z,28.75
2019-03-29T10:10:57.307Z,31.93
2019-03-29T10:13:25.743Z,33.18
2019-03-29T10:15:54.223Z,31.73
2019-03-29T10:18:22.603Z,30.25
2019-03-29T10:20:51.065Z,31.48
2019-03-29T10:23:19.442Z,30.95
2019-03-29T10:25:47.714Z,25.20
2019-03-29T10:28:22.257Z,33.42
2019-03-29T10:30:52.301Z,27.17
2019-03-29T10:35:52.926Z,23.55
2019-03-29T10:38:19.041Z,22.90
2019-03-29T10:40:48.350Z,22.62
2019-03-29T10:43:16.848Z,23.15
2019-03-29T10:45:45.368Z,26.90
2019-03-29T10:48:13.718Z,25.92
2019-03-29T10:50:43.785Z,25.70
2019-03-29T10:53:12.955Z,28.27
2019-03-29T10:55:41.445Z,28.17
2019-03-29T10:58:10.184Z,29.42
2019-03-29T11:00:39.864Z,30.50
2019-03-29T11:03:08.378Z,30.17
2019-03-29T11:05:36.851Z,27.45
2019-03-29T11:08:05.202Z,28.00
2019-03-29T11:10:38.519Z,26.10
2019-03-29T11:13:13.410Z,25.20
2019-03-29T11:18:05.345Z,22.75
2019-03-29T11:20:33.729Z,22.57
2019-03-29T11:23:02.388Z,26.48
2019-03-29T11:25:30.841Z,22.22
2019-03-29T11:28:00.988Z,21.42
2019-03-29T11:30:41.551Z,20.43
2019-03-29T11:35:27.087Z,21.87
2019-03-29T11:37:55.728Z,22.98
2019-03-29T11:40:24.198Z,20.77
2019-03-29T11:42:52.635Z,19.25
2019-03-29T11:45:20.972Z,18.10
2019-03-29T11:47:49.315Z,22.52
2019-03-29T11:50:17.609Z,20.43
2019-03-29T11:52:49.166Z,21.37
2019-03-29T11:55:23.261Z,22.02
2019-03-29T11:57:55.596Z,20.92
2019-03-29T12:00:28.367Z,21.77
2019-03-29T12:02:56.754Z,22.52
2019-03-29T12:05:25.060Z,20.35
2019-03-29T12:07:53.558Z,22.73
2019-03-29T12:10:22.018Z,25.57
2019-03-29T12:12:50.303Z,20.72
2019-03-29T12:15:18.948Z,21.37
2019-03-29T12:17:47.567Z,22.13
2019-03-29T12:20:15.987Z,22.40
2019-03-29T12:22:44.569Z,19.52
2019-03-29T12:25:13.650Z,23.75
2019-03-29T12:27:42.072Z,24.47
2019-03-29T12:30:10.529Z,23.10
2019-03-29T12:32:39.007Z,20.27
2019-03-29T12:35:09.970Z,21.12
2019-03-29T12:37:37.750Z,24.15
2019-03-29T12:40:07.864Z,22.87
2019-03-29T12:45:05.509Z,18.57
2019-03-29T12:50:01.523Z,25.25
2019-03-29T12:52:30.014Z,21.10
2019-03-29T12:54:58.404Z,20.25
2019-03-29T12:57:26.863Z,21.45
2019-03-29T12:59:55.342Z,22.02
2019-03-29T13:02:23.748Z,21.97
2019-03-29T13:04:52.100Z,21.35
2019-03-29T13:07:20.737Z,21.77
2019-03-29T13:09:49.199Z,22.32
2019-03-29T13:12:17.882Z,23.60
2019-03-29T13:14:46.175Z,24.35
2019-03-29T13:17:14.703Z,22.27
2019-03-29T13:19:43.239Z,26.10
2019-03-29T13:22:12.204Z,19.98
2019-03-29T13:24:40.466Z,21.02
2019-03-29T13:27:08.764Z,22.45
2019-03-29T13:29:37.385Z,23.02
2019-03-29T13:32:06.134Z,22.87
2019-03-29T13:34:34.612Z,24.05
2019-03-29T13:37:03.454Z,21.02
2019-03-29T13:39:31.892Z,23.30
2019-03-29T13:42:00.695Z,29.63
2019-03-29T13:44:29.426Z,21.55
2019-03-29T13:46:57.727Z,20.40
2019-03-29T13:49:26.008Z,26.80
2019-03-29T13:51:54.678Z,24.57
2019-03-29T13:54:23.185Z,24.63
2019-03-29T13:56:51.718Z,24.32
2019-03-29T13:59:20.175Z,22.65
2019-03-29T14:01:48.775Z,22.52
2019-03-29T14:04:17.140Z,19.77
2019-03-29T14:06:45.490Z,19.95
2019-03-29T14:09:13.834Z,25.35
2019-03-29T14:11:42.237Z,26.35
2019-03-29T14:14:10.724Z,26.97
2019-03-29T14:16:39.188Z,20.27
2019-03-29T14:19:07.853Z,20.68
2019-03-29T14:21:36.395Z,20.12
2019-03-29T14:24:05.068Z,24.20
2019-03-29T14:26:33.524Z,20.85
2019-03-29T14:29:02.005Z,22.17
2019-03-29T14:31:30.561Z,20.52
2019-03-29T14:33:59.019Z,22.60
2019-03-29T14:36:27.560Z,20.27
2019-03-29T14:38:55.816Z,23.55
2019-03-29T14:41:24.088Z,23.27
2019-03-29T14:43:52.541Z,25.17
2019-03-29T14:46:21.037Z,25.15
2019-03-29T14:48:49.333Z,25.25
2019-03-29T14:51:19.539Z,23.10
2019-03-29T14:56:15.866Z,24.15
2019-03-29T14:58:44.322Z,23.95
2019-03-29T15:01:12.759Z,27.95
2019-03-29T15:03:41.151Z,22.62
2019-03-29T15:06:09.695Z,23.95
2019-03-29T15:08:38.173Z,27.75
2019-03-29T15:11:21.281Z,19.42
2019-03-29T15:13:38.264Z,19.35
2019-03-29T15:16:06.520Z,23.60
2019-03-29T15:18:35.015Z,20.05
2019-03-29T15:21:03.389Z,21.90
2019-03-29T15:23:31.918Z,21.33
2019-03-29T15:26:00.237Z,23.75
2019-03-29T15:28:28.584Z,30.08
2019-03-29T15:30:56.849Z,23.52
2019-03-29T15:33:25.391Z,19.27
2019-03-29T15:35:53.803Z,21.10
2019-03-29T15:38:22.249Z,21.12
2019-03-29T15:40:50.721Z,21.07
2019-03-29T15:43:19.423Z,22.93
2019-03-29T15:45:47.948Z,19.40
2019-03-29T15:48:16.586Z,18.40
2019-03-29T15:50:45.059Z,17.80
2019-03-29T15:53:13.558Z,15.68
2019-03-29T15:55:42.032Z,22.62
2019-03-29T15:58:10.389Z,16.30
2019-03-29T16:00:38.878Z,23.67
2019-03-29T16:03:07.675Z,16.87
2019-03-29T16:05:36.094Z,19.02
2019-03-29T16:08:04.583Z,17.48
2019-03-29T16:10:32.967Z,15.98
2019-03-29T16:13:14.811Z,20.35
2019-03-29T16:15:43.395Z,19.32
2019-03-29T16:18:11.735Z,19.25
2019-03-29T16:20:40.897Z,19.05
2019-03-29T16:23:09.319Z,17.40
2019-03-29T16:25:37.651Z,14.23
2019-03-29T16:28:06.123Z,12.30
2019-03-29T16:30:34.438Z,15.53
2019-03-29T16:33:02.798Z,16.00
2019-03-29T16:35:31.393Z,14.60
2019-03-29T16:37:59.801Z,16.57
2019-03-29T16:40:30.878Z,16.27
2019-03-29T16:42:58.546Z,13.08
2019-03-29T16:45:27.313Z,12.43
2019-03-29T16:47:55.940Z,22.93
2019-03-29T16:50:24.562Z,31.85
2019-03-29T16:52:53.227Z,24.45
2019-03-29T16:55:23.100Z,14.90
2019-03-29T16:57:51.426Z,15.83
2019-03-29T17:00:19.968Z,16.45
2019-03-29T17:02:52.104Z,20.65
2019-03-29T17:05:24.659Z,21.33
2019-03-29T17:07:53.167Z,21.37
2019-03-29T17:10:21.549Z,22.22
2019-03-29T17:12:53.126Z,21.75
2019-03-29T17:15:22.199Z,20.17
2019-03-29T17:17:54.060Z,26.07
2019-03-29T17:20:22.605Z,20.52
2019-03-29T17:22:52.451Z,26.35
2019-03-29T17:25:22.513Z,30.70
2019-03-29T17:30:37.506Z,23.45
2019-03-29T17:33:05.912Z,25.97
2019-03-29T17:35:39.940Z,23.85
2019-03-29T17:38:08.522Z,30.25
2019-03-29T17:40:37.014Z,24.95
2019-03-29T17:43:05.652Z,33.78
2019-03-29T17:45:34.472Z,32.33
2019-03-29T17:48:03.153Z,31.75
2019-03-29T17:50:43.696Z,26.93
2019-03-29T17:53:12.056Z,26.90
2019-03-29T17:55:40.472Z,27.93
2019-03-29T17:58:09.004Z,25.95
2019-03-29T18:00:55.567Z,26.05
2019-03-29T18:03:24.284Z,24.47
2019-03-29T18:05:55.206Z,23.12
2019-03-29T18:08:26.850Z,24.47
2019-03-29T18:10:55.358Z,27.32
2019-03-29T18:13:33.476Z,27.35
2019-03-29T18:16:01.969Z,23.70
2019-03-29T18:18:30.472Z,29.48
2019-03-29T18:20:58.909Z,26.55
2019-03-29T18:23:27.392Z,27.02
2019-03-29T18:25:55.808Z,26.85
2019-03-29T18:28:24.234Z,25.23
2019-03-29T18:30:52.683Z,25.27
2019-03-29T18:33:26.562Z,24.60
2019-03-29T18:35:55.966Z,27.40
2019-03-29T18:38:24.619Z,26.40
2019-03-29T18:41:02.007Z,28.67
2019-03-29T18:43:30.420Z,25.70
2019-03-29T18:45:58.759Z,26.48
2019-03-29T18:48:29.163Z,27.27
2019-03-29T18:50:57.588Z,23.75
2019-03-29T18:53:27.076Z,29.07
2019-03-29T18:58:28.402Z,30.10
2019-03-29T19:00:57.048Z,28.92
2019-03-29T19:03:25.369Z,32.30
2019-03-29T19:05:53.914Z,55.92
2019-03-29T19:08:22.258Z,52.43
2019-03-29T19:10:50.580Z,58.42
2019-03-29T19:13:19.080Z,58.70
2019-03-29T19:15:47.680Z,64.10
2019-03-29T19:18:17.676Z,53.83
2019-03-29T19:23:16.527Z,49.48
2019-03-29T19:28:20.439Z,47.58
2019-03-29T19:30:51.512Z,43.55
2019-03-29T19:33:19.973Z,41.70
2019-03-29T19:35:48.428Z,44.05
2019-03-29T19:38:16.784Z,44.35
2019-03-29T19:40:45.297Z,38.23
2019-03-29T19:43:13.730Z,44.27
2019-03-29T19:45:42.132Z,47.38
2019-03-29T19:48:10.775Z,50.52
2019-03-29T19:50:39.316Z,54.03
2019-03-29T19:53:10.574Z,47.08
2019-03-29T19:55:39.120Z,51.13
2019-03-29T19:58:07.499Z,46.02
2019-03-29T20:00:38.309Z,50.20
2019-03-29T20:03:06.936Z,45.38
2019-03-29T20:05:35.451Z,47.65
2019-03-29T20:08:03.993Z,48.00
2019-03-29T20:10:34.108Z,48.15
2019-03-29T20:13:02.535Z,49.88
2019-03-29T20:15:30.975Z,51.20
2019-03-29T20:17:59.417Z,45.28
2019-03-29T20:20:27.957Z,38.98
2019-03-29T20:22:56.605Z,45.23
2019-03-29T20:25:25.057Z,41.10
2019-03-29T20:27:53.862Z,46.37
2019-03-29T20:30:22.197Z,51.53
2019-03-29T20:32:50.782Z,57.48
2019-03-29T20:35:19.100Z,58.73
2019-03-29T20:37:47.516Z,74.65
2019-03-29T20:40:17.525Z,74.42
2019-03-29T20:45:13.869Z,73.95
2019-03-29T20:47:42.763Z,69.97
2019-03-29T20:50:11.352Z,71.87
2019-03-29T20:52:40.014Z,71.87
2019-03-29T20:55:08.564Z,68.02
2019-03-29T20:57:37.078Z,66.87
2019-03-29T21:00:09.392Z,71.85
2019-03-29T21:02:38.536Z,63.48
2019-03-29T21:05:07.529Z,55.20
2019-03-29T21:07:35.853Z,57.97
2019-03-29T21:10:06.600Z,55.45
2019-03-29T21:12:38.963Z,61.92
2019-03-29T21:15:07.377Z,64.90
2019-03-29T21:17:36.873Z,69.60
2019-03-29T21:20:08.453Z,79.27
2019-03-29T21:22:36.958Z,69.40
2019-03-29T21:25:06.773Z,72.82
2019-03-29T21:27:35.404Z,67.22
2019-03-29T21:30:06.948Z,77.80
2019-03-29T21:32:35.399Z,67.90
2019-03-29T21:35:05.300Z,64.72
2019-03-29T21:37:33.794Z,67.45
2019-03-29T21:40:02.400Z,69.50
2019-03-29T21:42:31.268Z,70.42
2019-03-29T21:44:59.742Z,64.58
2019-03-29T21:47:28.422Z,69.35
2019-03-29T21:49:56.847Z,65.37
2019-03-29T21:52:25.261Z,70.37
2019-03-29T21:54:53.620Z,74.47
2019-03-29T21:57:22.199Z,71.97
2019-03-29T21:59:50.695Z,70.35
2019-03-29T22:02:21.461Z,65.83
2019-03-29T22:04:49.749Z,68.80
2019-03-29T22:07:19.298Z,78.55
2019-03-29T22:09:47.643Z,68.10
2019-03-29T22:12:16.113Z,74.85
2019-03-29T22:14:44.517Z,67.37
2019-03-29T22:17:12.998Z,69.00
2019-03-29T22:19:41.464Z,75.55
2019-03-29T22:22:09.896Z,73.47
2019-03-29T22:24:38.265Z,67.82
2019-03-29T22:27:06.565Z,71.45
2019-03-29T22:29:34.932Z,77.67
2019-03-29T22:32:04.540Z,64.47
2019-03-29T22:34:33.188Z,63.20
2019-03-29T22:37:01.507Z,69.42
2019-03-29T22:39:29.898Z,68.52
2019-03-29T22:41:58.266Z,68.60
2019-03-29T22:44:26.548Z,62.67
2019-03-29T22:46:55.106Z,76.30
2019-03-29T22:49:23.579Z,67.47
2019-03-29T22:51:51.902Z,68.37
2019-03-29T22:54:20.271Z,72.03
2019-03-29T22:56:48.578Z,72.37
2019-03-29T22:59:17.006Z,60.28
2019-03-29T23:01:45.619Z,70.37
2019-03-29T23:04:14.235Z,72.47
2019-03-29T23:06:42.876Z,69.25
2019-03-29T23:09:11.929Z,79.87
2019-03-29T23:11:40.695Z,73.80
2019-03-29T23:14:08.990Z,73.65
2019-03-29T23:16:37.862Z,71.90
2019-03-29T23:19:07.200Z,64.45
2019-03-29T23:21:35.747Z,78.80
2019-03-29T23:24:04.237Z,77.50
2019-03-29T23:26:32.536Z,84.40
2019-03-29T23:29:00.916Z,77.12
2019-03-29T23:31:29.358Z,73.65
2019-03-29T23:33:58.663Z,71.77
2019-03-29T23:36:27.098Z,77.42
2019-03-29T23:38:55.433Z,72.90
2019-03-29T23:41:23.962Z,66.12
2019-03-29T23:43:52.483Z,80.87
2019-03-29T23:46:20.900Z,77.50
2019-03-29T23:48:49.411Z,78.28
2019-03-29T23:51:18.117Z,89.67
2019-03-29T23:53:46.465Z,73.55
2019-03-29T23:56:15.169Z,83.12
2019-03-29T23:58:45.439Z,77.20
